New Liberty, Kentucky
Current Conditions -  °F | °C
As of 11:53 PM on Friday 28 Nov 2014 (Local Time) from KFFT Reporting Station
Clear Clear  
Wind Chill: 33°   Ceiling: Unl
Heat Index: 33°   Visibility: 10mi
Dew Point: 20°   Wind: 3mph
Humidity: 59%   Direction: 170°S
Pressure: 30.07"   Gusts: NA
Location:  38.62°N, 84.91°W
Report Text: KFFT 290453Z AUTO 17003KT 10SM CLR 01/M07 A3007 RMK AO2 SLP191 T00061067 400281050
Loading
Personal Weather Stations






























Interactive Weather Map New forecast layout! Learn more

10-Day Weather Forecast

Advertisements
Track Severe Weather on mobile